sensor_id;sensor_type;location;lat;lon;timestamp;temperature;humidity
7077;DHT22;3579;48.956;9.154;2023-06-10T00:00:49;26.60;45.40
7077;DHT22;3579;48.956;9.154;2023-06-10T00:03:16;26.50;45.40
7077;DHT22;3579;48.956;9.154;2023-06-10T00:05:43;26.50;45.40
7077;DHT22;3579;48.956;9.154;2023-06-10T00:08:09;26.50;45.40
7077;DHT22;3579;48.956;9.154;2023-06-10T00:10:37;26.50;45.40
7077;DHT22;3579;48.956;9.154;2023-06-10T00:13:05;26.50;45.50
7077;DHT22;3579;48.956;9.154;2023-06-10T00:15:33;26.40;45.40
7077;DHT22;3579;48.956;9.154;2023-06-10T00:17:59;26.40;45.40
7077;DHT22;3579;48.956;9.154;2023-06-10T00:20:26;26.40;45.40
7077;DHT22;3579;48.956;9.154;2023-06-10T00:22:52;26.40;45.40
7077;DHT22;3579;48.956;9.154;2023-06-10T00:25:19;26.40;45.50
7077;DHT22;3579;48.956;9.154;2023-06-10T00:27:45;26.40;45.50
7077;DHT22;3579;48.956;9.154;2023-06-10T00:30:11;26.40;45.50
7077;DHT22;3579;48.956;9.154;2023-06-10T00:32:37;26.40;45.50
7077;DHT22;3579;48.956;9.154;2023-06-10T00:35:04;26.30;45.40
7077;DHT22;3579;48.956;9.154;2023-06-10T00:37:30;26.40;45.50
7077;DHT22;3579;48.956;9.154;2023-06-10T00:39:58;26.30;45.50
7077;DHT22;3579;48.956;9.154;2023-06-10T00:42:23;26.30;45.50
7077;DHT22;3579;48.956;9.154;2023-06-10T00:44:54;26.30;45.50
7077;DHT22;3579;48.956;9.154;2023-06-10T00:47:20;26.30;45.50
7077;DHT22;3579;48.956;9.154;2023-06-10T00:49:47;26.30;45.50
7077;DHT22;3579;48.956;9.154;2023-06-10T00:52:15;26.20;45.50
7077;DHT22;3579;48.956;9.154;2023-06-10T00:54:42;26.20;45.50
7077;DHT22;3579;48.956;9.154;2023-06-10T00:57:08;26.30;45.60
7077;DHT22;3579;48.956;9.154;2023-06-10T00:59:35;26.20;45.50
7077;DHT22;3579;48.956;9.154;2023-06-10T01:02:01;26.20;45.60
7077;DHT22;3579;48.956;9.154;2023-06-10T01:04:28;26.20;45.50
7077;DHT22;3579;48.956;9.154;2023-06-10T01:07:14;26.20;45.60
7077;DHT22;3579;48.956;9.154;2023-06-10T01:09:55;26.20;45.60
7077;DHT22;3579;48.956;9.154;2023-06-10T01:15:02;26.10;45.60
7077;DHT22;3579;48.956;9.154;2023-06-10T01:17:30;26.10;45.60
7077;DHT22;3579;48.956;9.154;2023-06-10T01:19:57;26.10;45.60
7077;DHT22;3579;48.956;9.154;2023-06-10T01:22:24;26.10;45.60
7077;DHT22;3579;48.956;9.154;2023-06-10T01:24:52;26.10;45.60
7077;DHT22;3579;48.956;9.154;2023-06-10T01:27:20;26.10;45.80
7077;DHT22;3579;48.956;9.154;2023-06-10T01:29:54;26.10;45.60
7077;DHT22;3579;48.956;9.154;2023-06-10T01:32:34;26.00;45.60
7077;DHT22;3579;48.956;9.154;2023-06-10T01:35:02;26.10;45.70
7077;DHT22;3579;48.956;9.154;2023-06-10T01:37:33;26.00;45.60
7077;DHT22;3579;48.956;9.154;2023-06-10T01:40:00;26.00;45.70
7077;DHT22;3579;48.956;9.154;2023-06-10T01:42:29;26.00;45.70
7077;DHT22;3579;48.956;9.154;2023-06-10T01:44:55;26.00;45.70
7077;DHT22;3579;48.956;9.154;2023-06-10T01:47:22;26.00;45.70
7077;DHT22;3579;48.956;9.154;2023-06-10T01:49:48;25.90;45.70
7077;DHT22;3579;48.956;9.154;2023-06-10T01:52:14;26.00;45.70
7077;DHT22;3579;48.956;9.154;2023-06-10T01:54:40;25.90;45.70
7077;DHT22;3579;48.956;9.154;2023-06-10T01:57:06;25.90;45.70
7077;DHT22;3579;48.956;9.154;2023-06-10T01:59:32;25.90;45.70
7077;DHT22;3579;48.956;9.154;2023-06-10T02:01:58;25.90;45.70
7077;DHT22;3579;48.956;9.154;2023-06-10T02:04:24;25.90;45.70
7077;DHT22;3579;48.956;9.154;2023-06-10T02:06:50;25.90;45.70
7077;DHT22;3579;48.956;9.154;2023-06-10T02:09:17;25.80;45.70
7077;DHT22;3579;48.956;9.154;2023-06-10T02:11:44;25.90;45.70
7077;DHT22;3579;48.956;9.154;2023-06-10T02:14:10;25.80;45.70
7077;DHT22;3579;48.956;9.154;2023-06-10T02:16:36;25.80;45.70
7077;DHT22;3579;48.956;9.154;2023-06-10T02:19:02;25.80;45.70
7077;DHT22;3579;48.956;9.154;2023-06-10T02:21:32;25.80;45.70
7077;DHT22;3579;48.956;9.154;2023-06-10T02:24:00;25.80;45.70
7077;DHT22;3579;48.956;9.154;2023-06-10T02:26:26;25.80;45.80
7077;DHT22;3579;48.956;9.154;2023-06-10T02:28:52;25.80;45.80
7077;DHT22;3579;48.956;9.154;2023-06-10T02:31:19;25.80;45.80
7077;DHT22;3579;48.956;9.154;2023-06-10T02:33:45;25.80;45.80
7077;DHT22;3579;48.956;9.154;2023-06-10T02:36:12;25.80;45.80
7077;DHT22;3579;48.956;9.154;2023-06-10T02:38:41;25.70;45.80
7077;DHT22;3579;48.956;9.154;2023-06-10T02:41:08;25.70;45.80
7077;DHT22;3579;48.956;9.154;2023-06-10T02:43:34;25.70;45.80
7077;DHT22;3579;48.956;9.154;2023-06-10T02:46:00;25.70;45.90
7077;DHT22;3579;48.956;9.154;2023-06-10T02:48:27;25.70;45.80
7077;DHT22;3579;48.956;9.154;2023-06-10T02:50:53;25.60;45.80
7077;DHT22;3579;48.956;9.154;2023-06-10T02:53:19;25.60;45.90
7077;DHT22;3579;48.956;9.154;2023-06-10T02:55:45;25.60;45.90
7077;DHT22;3579;48.956;9.154;2023-06-10T02:58:12;25.70;45.90
7077;DHT22;3579;48.956;9.154;2023-06-10T03:00:38;25.60;45.90
7077;DHT22;3579;48.956;9.154;2023-06-10T03:03:06;25.60;45.90
7077;DHT22;3579;48.956;9.154;2023-06-10T03:05:32;25.60;45.90
7077;DHT22;3579;48.956;9.154;2023-06-10T03:07:58;25.60;45.90
7077;DHT22;3579;48.956;9.154;2023-06-10T03:10:24;25.60;45.90
7077;DHT22;3579;48.956;9.154;2023-06-10T03:12:50;25.50;45.80
7077;DHT22;3579;48.956;9.154;2023-06-10T03:15:16;25.50;45.90
7077;DHT22;3579;48.956;9.154;2023-06-10T03:17:42;25.50;45.90
7077;DHT22;3579;48.956;9.154;2023-06-10T03:20:09;25.50;45.90
7077;DHT22;3579;48.956;9.154;2023-06-10T03:22:36;25.50;45.90
7077;DHT22;3579;48.956;9.154;2023-06-10T03:25:04;25.50;46.00
7077;DHT22;3579;48.956;9.154;2023-06-10T03:27:31;25.50;46.00
7077;DHT22;3579;48.956;9.154;2023-06-10T03:29:58;25.50;46.00
7077;DHT22;3579;48.956;9.154;2023-06-10T03:32:24;25.50;46.00
7077;DHT22;3579;48.956;9.154;2023-06-10T03:34:50;25.50;46.00
7077;DHT22;3579;48.956;9.154;2023-06-10T03:37:17;25.50;46.00
7077;DHT22;3579;48.956;9.154;2023-06-10T03:39:43;25.50;46.00
7077;DHT22;3579;48.956;9.154;2023-06-10T03:42:09;25.50;46.00
7077;DHT22;3579;48.956;9.154;2023-06-10T03:44:35;25.50;45.90
7077;DHT22;3579;48.956;9.154;2023-06-10T03:47:02;25.50;46.50
7077;DHT22;3579;48.956;9.154;2023-06-10T03:49:28;25.50;45.90
7077;DHT22;3579;48.956;9.154;2023-06-10T03:51:55;25.50;45.90
7077;DHT22;3579;48.956;9.154;2023-06-10T03:54:21;25.50;45.90
7077;DHT22;3579;48.956;9.154;2023-06-10T03:56:47;25.50;45.80
7077;DHT22;3579;48.956;9.154;2023-06-10T03:59:16;25.50;45.80
7077;DHT22;3579;48.956;9.154;2023-06-10T04:01:42;25.50;45.80
7077;DHT22;3579;48.956;9.154;2023-06-10T04:04:09;25.50;45.80
7077;DHT22;3579;48.956;9.154;2023-06-10T04:06:36;25.60;45.90
7077;DHT22;3579;48.956;9.154;2023-06-10T04:09:03;25.50;45.80
7077;DHT22;3579;48.956;9.154;2023-06-10T04:11:29;25.60;45.90
7077;DHT22;3579;48.956;9.154;2023-06-10T04:13:54;25.60;45.90
7077;DHT22;3579;48.956;9.154;2023-06-10T04:16:20;25.60;45.80
7077;DHT22;3579;48.956;9.154;2023-06-10T04:18:49;25.60;45.80
7077;DHT22;3579;48.956;9.154;2023-06-10T04:21:15;25.70;45.90
7077;DHT22;3579;48.956;9.154;2023-06-10T04:23:41;25.70;45.90
7077;DHT22;3579;48.956;9.154;2023-06-10T04:26:07;25.70;45.80
7077;DHT22;3579;48.956;9.154;2023-06-10T04:28:33;25.70;45.80
7077;DHT22;3579;48.956;9.154;2023-06-10T04:30:59;25.70;45.80
7077;DHT22;3579;48.956;9.154;2023-06-10T04:33:25;25.80;45.90
7077;DHT22;3579;48.956;9.154;2023-06-10T04:35:52;25.80;45.90
7077;DHT22;3579;48.956;9.154;2023-06-10T04:38:18;25.80;45.90
7077;DHT22;3579;48.956;9.154;2023-06-10T04:40:44;25.80;45.80
7077;DHT22;3579;48.956;9.154;2023-06-10T04:43:10;25.80;45.70
7077;DHT22;3579;48.956;9.154;2023-06-10T04:45:36;25.80;45.70
7077;DHT22;3579;48.956;9.154;2023-06-10T04:48:02;25.80;45.70
7077;DHT22;3579;48.956;9.154;2023-06-10T04:50:28;25.90;45.70
7077;DHT22;3579;48.956;9.154;2023-06-10T04:52:54;25.90;45.70
7077;DHT22;3579;48.956;9.154;2023-06-10T04:55:23;25.90;45.70
7077;DHT22;3579;48.956;9.154;2023-06-10T04:57:49;26.00;45.80
7077;DHT22;3579;48.956;9.154;2023-06-10T05:00:16;26.00;45.80
7077;DHT22;3579;48.956;9.154;2023-06-10T05:02:42;26.00;45.70
7077;DHT22;3579;48.956;9.154;2023-06-10T05:05:08;26.10;45.70
7077;DHT22;3579;48.956;9.154;2023-06-10T05:07:34;26.10;45.70
7077;DHT22;3579;48.956;9.154;2023-06-10T05:10:00;26.10;45.60
7077;DHT22;3579;48.956;9.154;2023-06-10T05:12:27;26.10;45.60
7077;DHT22;3579;48.956;9.154;2023-06-10T05:14:53;26.70;46.00
7077;DHT22;3579;48.956;9.154;2023-06-10T05:17:19;26.20;45.60
7077;DHT22;3579;48.956;9.154;2023-06-10T05:19:45;26.20;45.50
7077;DHT22;3579;48.956;9.154;2023-06-10T05:22:11;26.30;45.50
7077;DHT22;3579;48.956;9.154;2023-06-10T05:24:37;26.30;45.50
7077;DHT22;3579;48.956;9.154;2023-06-10T05:27:03;26.30;45.40
7077;DHT22;3579;48.956;9.154;2023-06-10T05:29:29;26.40;45.50
7077;DHT22;3579;48.956;9.154;2023-06-10T05:31:55;26.40;45.40
7077;DHT22;3579;48.956;9.154;2023-06-10T05:34:22;26.40;45.50
7077;DHT22;3579;48.956;9.154;2023-06-10T05:36:48;26.40;45.40
7077;DHT22;3579;48.956;9.154;2023-06-10T05:39:14;26.50;45.50
7077;DHT22;3579;48.956;9.154;2023-06-10T05:41:40;26.50;45.40
7077;DHT22;3579;48.956;9.154;2023-06-10T05:44:06;26.60;45.40
7077;DHT22;3579;48.956;9.154;2023-06-10T05:46:32;26.60;45.30
7077;DHT22;3579;48.956;9.154;2023-06-10T05:48:58;26.60;45.40
7077;DHT22;3579;48.956;9.154;2023-06-10T05:51:24;26.60;45.30
7077;DHT22;3579;48.956;9.154;2023-06-10T05:53:51;26.70;45.20
7077;DHT22;3579;48.956;9.154;2023-06-10T05:56:17;26.70;45.30
7077;DHT22;3579;48.956;9.154;2023-06-10T05:58:43;26.80;45.20
7077;DHT22;3579;48.956;9.154;2023-06-10T06:01:09;26.80;45.20
7077;DHT22;3579;48.956;9.154;2023-06-10T06:03:35;26.80;45.20
7077;DHT22;3579;48.956;9.154;2023-06-10T06:06:02;26.80;45.10
7077;DHT22;3579;48.956;9.154;2023-06-10T06:08:28;26.80;45.20
7077;DHT22;3579;48.956;9.154;2023-06-10T06:10:54;26.80;45.10
7077;DHT22;3579;48.956;9.154;2023-06-10T06:13:20;26.90;45.10
7077;DHT22;3579;48.956;9.154;2023-06-10T06:15:46;26.90;45.10
7077;DHT22;3579;48.956;9.154;2023-06-10T06:18:12;26.90;45.10
7077;DHT22;3579;48.956;9.154;2023-06-10T06:20:38;26.90;45.20
7077;DHT22;3579;48.956;9.154;2023-06-10T06:23:04;27.00;45.20
7077;DHT22;3579;48.956;9.154;2023-06-10T06:25:30;27.00;45.10
7077;DHT22;3579;48.956;9.154;2023-06-10T06:27:56;27.00;45.10
7077;DHT22;3579;48.956;9.154;2023-06-10T06:30:22;27.00;45.10
7077;DHT22;3579;48.956;9.154;2023-06-10T06:32:48;27.00;45.10
7077;DHT22;3579;48.956;9.154;2023-06-10T06:35:14;27.10;45.20
7077;DHT22;3579;48.956;9.154;2023-06-10T06:37:40;27.10;45.20
7077;DHT22;3579;48.956;9.154;2023-06-10T06:40:06;27.10;45.20
7077;DHT22;3579;48.956;9.154;2023-06-10T06:42:33;27.10;45.20
7077;DHT22;3579;48.956;9.154;2023-06-10T06:44:58;27.10;45.20
7077;DHT22;3579;48.956;9.154;2023-06-10T06:47:24;27.10;45.20
7077;DHT22;3579;48.956;9.154;2023-06-10T06:49:52;27.10;45.20
7077;DHT22;3579;48.956;9.154;2023-06-10T06:52:18;27.10;45.20
7077;DHT22;3579;48.956;9.154;2023-06-10T06:54:44;27.20;45.20
7077;DHT22;3579;48.956;9.154;2023-06-10T06:57:11;27.20;45.30
7077;DHT22;3579;48.956;9.154;2023-06-10T06:59:37;27.20;45.30
7077;DHT22;3579;48.956;9.154;2023-06-10T07:02:03;27.20;45.20
7077;DHT22;3579;48.956;9.154;2023-06-10T07:04:29;27.20;45.20
7077;DHT22;3579;48.956;9.154;2023-06-10T07:06:56;27.20;45.20
7077;DHT22;3579;48.956;9.154;2023-06-10T07:09:21;27.20;45.20
7077;DHT22;3579;48.956;9.154;2023-06-10T07:11:47;27.20;45.20
7077;DHT22;3579;48.956;9.154;2023-06-10T07:14:13;27.20;45.10
7077;DHT22;3579;48.956;9.154;2023-06-10T07:16:39;27.20;45.10
7077;DHT22;3579;48.956;9.154;2023-06-10T07:19:05;27.20;45.10
7077;DHT22;3579;48.956;9.154;2023-06-10T07:21:31;27.20;45.10
7077;DHT22;3579;48.956;9.154;2023-06-10T07:23:58;27.20;45.10
7077;DHT22;3579;48.956;9.154;2023-06-10T07:26:25;27.30;45.20
7077;DHT22;3579;48.956;9.154;2023-06-10T07:28:51;27.20;45.20
7077;DHT22;3579;48.956;9.154;2023-06-10T07:31:17;27.30;45.20
7077;DHT22;3579;48.956;9.154;2023-06-10T07:33:44;27.30;45.20
7077;DHT22;3579;48.956;9.154;2023-06-10T07:36:10;27.30;45.20
7077;DHT22;3579;48.956;9.154;2023-06-10T07:38:36;27.30;45.20
7077;DHT22;3579;48.956;9.154;2023-06-10T07:41:02;27.30;45.20
7077;DHT22;3579;48.956;9.154;2023-06-10T07:43:29;27.30;45.20
7077;DHT22;3579;48.956;9.154;2023-06-10T07:45:55;27.30;45.20
7077;DHT22;3579;48.956;9.154;2023-06-10T07:48:21;27.30;45.20
7077;DHT22;3579;48.956;9.154;2023-06-10T07:50:47;27.30;45.20
7077;DHT22;3579;48.956;9.154;2023-06-10T07:53:12;27.30;45.20
7077;DHT22;3579;48.956;9.154;2023-06-10T07:55:38;27.40;45.20
7077;DHT22;3579;48.956;9.154;2023-06-10T07:58:04;27.30;45.20
7077;DHT22;3579;48.956;9.154;2023-06-10T08:00:30;27.30;45.20
7077;DHT22;3579;48.956;9.154;2023-06-10T08:02:56;27.40;45.80
7077;DHT22;3579;48.956;9.154;2023-06-10T08:05:22;27.40;45.20
7077;DHT22;3579;48.956;9.154;2023-06-10T08:07:48;27.40;45.30
7077;DHT22;3579;48.956;9.154;2023-06-10T08:10:14;27.40;45.20
7077;DHT22;3579;48.956;9.154;2023-06-10T08:12:40;27.40;45.20
7077;DHT22;3579;48.956;9.154;2023-06-10T08:15:07;27.40;45.20
7077;DHT22;3579;48.956;9.154;2023-06-10T08:17:33;27.40;45.20
7077;DHT22;3579;48.956;9.154;2023-06-10T08:20:00;27.40;45.20
7077;DHT22;3579;48.956;9.154;2023-06-10T08:22:26;27.40;45.20
7077;DHT22;3579;48.956;9.154;2023-06-10T08:24:52;27.40;45.20
7077;DHT22;3579;48.956;9.154;2023-06-10T08:27:18;27.40;45.20
7077;DHT22;3579;48.956;9.154;2023-06-10T08:29:44;27.40;45.20
7077;DHT22;3579;48.956;9.154;2023-06-10T08:32:10;27.40;45.20
7077;DHT22;3579;48.956;9.154;2023-06-10T08:34:36;27.50;45.30
7077;DHT22;3579;48.956;9.154;2023-06-10T08:37:03;27.50;45.30
7077;DHT22;3579;48.956;9.154;2023-06-10T08:39:29;27.50;45.30
7077;DHT22;3579;48.956;9.154;2023-06-10T08:44:30;27.50;45.30
7077;DHT22;3579;48.956;9.154;2023-06-10T08:47:00;27.50;45.30
7077;DHT22;3579;48.956;9.154;2023-06-10T08:49:31;27.50;45.30
7077;DHT22;3579;48.956;9.154;2023-06-10T08:52:00;27.50;45.30
7077;DHT22;3579;48.956;9.154;2023-06-10T08:54:31;27.50;45.30
7077;DHT22;3579;48.956;9.154;2023-06-10T08:56:59;27.60;45.40
7077;DHT22;3579;48.956;9.154;2023-06-10T08:59:26;27.60;45.30
7077;DHT22;3579;48.956;9.154;2023-06-10T09:01:52;27.60;45.30
7077;DHT22;3579;48.956;9.154;2023-06-10T09:04:19;27.60;45.20
7077;DHT22;3579;48.956;9.154;2023-06-10T09:06:47;27.60;45.30
7077;DHT22;3579;48.956;9.154;2023-06-10T09:09:14;27.60;45.30
7077;DHT22;3579;48.956;9.154;2023-06-10T09:11:42;27.60;45.30
7077;DHT22;3579;48.956;9.154;2023-06-10T09:14:08;27.60;45.20
7077;DHT22;3579;48.956;9.154;2023-06-10T09:16:34;27.70;45.30
7077;DHT22;3579;48.956;9.154;2023-06-10T09:19:01;27.70;45.30
7077;DHT22;3579;48.956;9.154;2023-06-10T09:21:34;27.70;45.30
7077;DHT22;3579;48.956;9.154;2023-06-10T09:24:01;27.70;45.30
7077;DHT22;3579;48.956;9.154;2023-06-10T09:26:29;27.70;45.30
7077;DHT22;3579;48.956;9.154;2023-06-10T09:29:06;27.70;45.80
7077;DHT22;3579;48.956;9.154;2023-06-10T09:31:38;27.80;45.30
7077;DHT22;3579;48.956;9.154;2023-06-10T09:34:08;27.80;45.20
7077;DHT22;3579;48.956;9.154;2023-06-10T09:36:36;27.80;45.30
7077;DHT22;3579;48.956;9.154;2023-06-10T09:39:02;27.80;45.30
7077;DHT22;3579;48.956;9.154;2023-06-10T09:41:35;27.80;45.20
7077;DHT22;3579;48.956;9.154;2023-06-10T09:44:12;27.80;45.20
7077;DHT22;3579;48.956;9.154;2023-06-10T09:46:38;27.90;45.30
7077;DHT22;3579;48.956;9.154;2023-06-10T09:49:04;27.90;45.30
7077;DHT22;3579;48.956;9.154;2023-06-10T09:51:30;27.90;45.20
7077;DHT22;3579;48.956;9.154;2023-06-10T09:53:56;27.90;45.20
7077;DHT22;3579;48.956;9.154;2023-06-10T09:56:33;27.90;45.20
7077;DHT22;3579;48.956;9.154;2023-06-10T09:58:59;28.00;45.20
7077;DHT22;3579;48.956;9.154;2023-06-10T10:01:25;28.00;45.20
7077;DHT22;3579;48.956;9.154;2023-06-10T10:03:51;28.00;45.20
7077;DHT22;3579;48.956;9.154;2023-06-10T10:06:19;28.00;45.20
7077;DHT22;3579;48.956;9.154;2023-06-10T10:08:49;28.00;45.20
7077;DHT22;3579;48.956;9.154;2023-06-10T10:11:20;28.00;45.20
7077;DHT22;3579;48.956;9.154;2023-06-10T10:13:51;28.00;45.20
7077;DHT22;3579;48.956;9.154;2023-06-10T10:16:37;28.00;45.10
7077;DHT22;3579;48.956;9.154;2023-06-10T10:19:31;28.00;45.10
7077;DHT22;3579;48.956;9.154;2023-06-10T10:22:07;28.00;45.10
7077;DHT22;3579;48.956;9.154;2023-06-10T10:24:41;28.00;45.20
7077;DHT22;3579;48.956;9.154;2023-06-10T10:27:17;28.00;45.20
7077;DHT22;3579;48.956;9.154;2023-06-10T10:29:47;28.00;45.10
7077;DHT22;3579;48.956;9.154;2023-06-10T10:32:14;28.10;45.20
7077;DHT22;3579;48.956;9.154;2023-06-10T10:35:03;28.10;45.20
7077;DHT22;3579;48.956;9.154;2023-06-10T10:37:31;28.10;45.10
7077;DHT22;3579;48.956;9.154;2023-06-10T10:39:58;28.20;45.10
7077;DHT22;3579;48.956;9.154;2023-06-10T10:42:25;28.20;45.10
7077;DHT22;3579;48.956;9.154;2023-06-10T10:44:52;28.20;45.10
7077;DHT22;3579;48.956;9.154;2023-06-10T10:47:21;28.20;45.10
7077;DHT22;3579;48.956;9.154;2023-06-10T10:49:51;28.30;45.00
7077;DHT22;3579;48.956;9.154;2023-06-10T10:52:19;28.30;45.10
7077;DHT22;3579;48.956;9.154;2023-06-10T10:54:46;28.30;45.00
7077;DHT22;3579;48.956;9.154;2023-06-10T10:57:14;28.30;45.00
7077;DHT22;3579;48.956;9.154;2023-06-10T11:03:04;28.40;45.00
7077;DHT22;3579;48.956;9.154;2023-06-10T11:05:05;28.40;45.00
7077;DHT22;3579;48.956;9.154;2023-06-10T11:07:33;28.40;44.90
7077;DHT22;3579;48.956;9.154;2023-06-10T11:10:00;28.50;45.00
7077;DHT22;3579;48.956;9.154;2023-06-10T11:15:13;28.50;44.90
7077;DHT22;3579;48.956;9.154;2023-06-10T11:18:07;28.50;45.00
7077;DHT22;3579;48.956;9.154;2023-06-10T11:31:20;28.50;44.90
7077;DHT22;3579;48.956;9.154;2023-06-10T11:33:59;28.50;45.00
7077;DHT22;3579;48.956;9.154;2023-06-10T11:36:26;28.60;45.00
7077;DHT22;3579;48.956;9.154;2023-06-10T11:39:03;28.60;44.90
7077;DHT22;3579;48.956;9.154;2023-06-10T11:41:31;28.60;45.00
7077;DHT22;3579;48.956;9.154;2023-06-10T11:44:18;28.60;44.90
7077;DHT22;3579;48.956;9.154;2023-06-10T11:46:44;28.60;44.80
7077;DHT22;3579;48.956;9.154;2023-06-10T11:49:11;28.70;44.90
7077;DHT22;3579;48.956;9.154;2023-06-10T11:51:39;28.70;44.90
7077;DHT22;3579;48.956;9.154;2023-06-10T11:54:08;28.70;44.90
7077;DHT22;3579;48.956;9.154;2023-06-10T11:56:34;28.70;44.80
7077;DHT22;3579;48.956;9.154;2023-06-10T11:59:02;28.70;44.90
7077;DHT22;3579;48.956;9.154;2023-06-10T12:01:30;28.80;44.90
7077;DHT22;3579;48.956;9.154;2023-06-10T12:04:04;28.70;44.90
7077;DHT22;3579;48.956;9.154;2023-06-10T12:09:07;28.80;44.90
7077;DHT22;3579;48.956;9.154;2023-06-10T12:11:38;28.80;44.90
7077;DHT22;3579;48.956;9.154;2023-06-10T12:14:05;28.70;44.90
7077;DHT22;3579;48.956;9.154;2023-06-10T12:16:31;28.70;44.90
7077;DHT22;3579;48.956;9.154;2023-06-10T12:19:05;28.70;44.90
7077;DHT22;3579;48.956;9.154;2023-06-10T12:21:33;28.70;44.90
7077;DHT22;3579;48.956;9.154;2023-06-10T12:24:10;28.80;44.90
7077;DHT22;3579;48.956;9.154;2023-06-10T12:26:41;28.80;44.90
7077;DHT22;3579;48.956;9.154;2023-06-10T12:29:24;28.80;45.00
7077;DHT22;3579;48.956;9.154;2023-06-10T12:32:01;28.80;44.80
7077;DHT22;3579;48.956;9.154;2023-06-10T12:34:38;28.80;44.80
7077;DHT22;3579;48.956;9.154;2023-06-10T12:37:09;28.80;44.80
7077;DHT22;3579;48.956;9.154;2023-06-10T12:39:40;28.80;44.80
7077;DHT22;3579;48.956;9.154;2023-06-10T12:42:06;28.80;44.80
7077;DHT22;3579;48.956;9.154;2023-06-10T12:44:39;28.90;44.90
7077;DHT22;3579;48.956;9.154;2023-06-10T12:47:09;28.80;44.90
7077;DHT22;3579;48.956;9.154;2023-06-10T12:49:36;28.80;44.90
7077;DHT22;3579;48.956;9.154;2023-06-10T12:52:04;28.90;44.90
7077;DHT22;3579;48.956;9.154;2023-06-10T12:54:30;28.90;44.80
7077;DHT22;3579;48.956;9.154;2023-06-10T12:56:56;28.90;44.90
7077;DHT22;3579;48.956;9.154;2023-06-10T12:59:22;28.90;44.80
7077;DHT22;3579;48.956;9.154;2023-06-10T13:01:54;28.90;44.80
7077;DHT22;3579;48.956;9.154;2023-06-10T13:04:20;28.90;44.90
7077;DHT22;3579;48.956;9.154;2023-06-10T13:06:48;28.90;44.90
7077;DHT22;3579;48.956;9.154;2023-06-10T13:09:15;28.90;44.90
7077;DHT22;3579;48.956;9.154;2023-06-10T13:11:41;28.90;44.90
7077;DHT22;3579;48.956;9.154;2023-06-10T13:14:09;28.90;44.90
7077;DHT22;3579;48.956;9.154;2023-06-10T13:16:35;28.90;44.80
7077;DHT22;3579;48.956;9.154;2023-06-10T13:19:04;28.90;44.90
7077;DHT22;3579;48.956;9.154;2023-06-10T13:21:32;28.90;44.90
7077;DHT22;3579;48.956;9.154;2023-06-10T13:23:59;29.00;44.90
7077;DHT22;3579;48.956;9.154;2023-06-10T13:26:25;29.00;44.90
7077;DHT22;3579;48.956;9.154;2023-06-10T13:28:51;29.00;44.90
7077;DHT22;3579;48.956;9.154;2023-06-10T13:31:18;29.00;44.90
7077;DHT22;3579;48.956;9.154;2023-06-10T13:33:46;29.10;44.90
7077;DHT22;3579;48.956;9.154;2023-06-10T13:36:12;29.10;44.90
7077;DHT22;3579;48.956;9.154;2023-06-10T13:38:38;29.00;44.80
7077;DHT22;3579;48.956;9.154;2023-06-10T13:41:05;29.00;44.90
7077;DHT22;3579;48.956;9.154;2023-06-10T13:43:31;29.10;45.00
7077;DHT22;3579;48.956;9.154;2023-06-10T13:45:57;29.10;45.50
7077;DHT22;3579;48.956;9.154;2023-06-10T13:48:23;29.00;44.90
7077;DHT22;3579;48.956;9.154;2023-06-10T13:50:50;29.10;45.00
7077;DHT22;3579;48.956;9.154;2023-06-10T13:53:15;29.10;44.90
7077;DHT22;3579;48.956;9.154;2023-06-10T13:55:41;29.10;44.80
7077;DHT22;3579;48.956;9.154;2023-06-10T13:58:07;29.10;44.80
7077;DHT22;3579;48.956;9.154;2023-06-10T14:00:33;29.10;44.90
7077;DHT22;3579;48.956;9.154;2023-06-10T14:03:00;29.10;44.90
7077;DHT22;3579;48.956;9.154;2023-06-10T14:05:26;29.10;44.90
7077;DHT22;3579;48.956;9.154;2023-06-10T14:07:52;29.10;44.90
7077;DHT22;3579;48.956;9.154;2023-06-10T14:10:18;29.10;44.90
7077;DHT22;3579;48.956;9.154;2023-06-10T14:12:44;29.10;44.90
7077;DHT22;3579;48.956;9.154;2023-06-10T14:15:10;29.10;45.00
7077;DHT22;3579;48.956;9.154;2023-06-10T14:17:36;29.10;45.00
7077;DHT22;3579;48.956;9.154;2023-06-10T14:20:02;29.10;44.90
7077;DHT22;3579;48.956;9.154;2023-06-10T14:22:29;29.20;44.90
7077;DHT22;3579;48.956;9.154;2023-06-10T14:24:55;29.20;44.90
7077;DHT22;3579;48.956;9.154;2023-06-10T14:27:21;29.20;44.90
7077;DHT22;3579;48.956;9.154;2023-06-10T14:29:47;29.20;44.90
7077;DHT22;3579;48.956;9.154;2023-06-10T14:32:13;29.20;44.90
7077;DHT22;3579;48.956;9.154;2023-06-10T14:34:39;29.10;45.00
7077;DHT22;3579;48.956;9.154;2023-06-10T14:37:07;29.10;44.90
7077;DHT22;3579;48.956;9.154;2023-06-10T14:39:33;29.10;45.00
7077;DHT22;3579;48.956;9.154;2023-06-10T14:41:59;29.10;45.60
7077;DHT22;3579;48.956;9.154;2023-06-10T14:44:25;29.10;45.00
7077;DHT22;3579;48.956;9.154;2023-06-10T14:46:51;29.10;45.00
7077;DHT22;3579;48.956;9.154;2023-06-10T14:49:17;29.10;45.00
7077;DHT22;3579;48.956;9.154;2023-06-10T14:51:43;29.10;45.10
7077;DHT22;3579;48.956;9.154;2023-06-10T14:54:10;29.10;45.10
7077;DHT22;3579;48.956;9.154;2023-06-10T14:56:36;29.10;45.10
7077;DHT22;3579;48.956;9.154;2023-06-10T14:59:02;29.10;45.10
7077;DHT22;3579;48.956;9.154;2023-06-10T15:01:28;29.10;45.10
7077;DHT22;3579;48.956;9.154;2023-06-10T15:03:54;29.10;45.10
7077;DHT22;3579;48.956;9.154;2023-06-10T15:06:20;29.10;45.00
7077;DHT22;3579;48.956;9.154;2023-06-10T15:08:48;29.10;45.00
7077;DHT22;3579;48.956;9.154;2023-06-10T15:11:15;29.10;45.00
7077;DHT22;3579;48.956;9.154;2023-06-10T15:13:41;29.20;45.10
7077;DHT22;3579;48.956;9.154;2023-06-10T15:16:07;29.10;45.00
7077;DHT22;3579;48.956;9.154;2023-06-10T15:18:33;29.10;45.00
7077;DHT22;3579;48.956;9.154;2023-06-10T15:20:59;29.10;45.10
7077;DHT22;3579;48.956;9.154;2023-06-10T15:23:26;29.10;45.10
7077;DHT22;3579;48.956;9.154;2023-06-10T15:25:52;29.10;45.10
7077;DHT22;3579;48.956;9.154;2023-06-10T15:28:18;29.10;45.20
7077;DHT22;3579;48.956;9.154;2023-06-10T15:30:44;29.10;45.20
7077;DHT22;3579;48.956;9.154;2023-06-10T15:33:10;29.10;45.10
7077;DHT22;3579;48.956;9.154;2023-06-10T15:35:36;29.10;45.10
7077;DHT22;3579;48.956;9.154;2023-06-10T15:38:02;29.10;45.10
7077;DHT22;3579;48.956;9.154;2023-06-10T15:40:28;29.10;45.10
7077;DHT22;3579;48.956;9.154;2023-06-10T15:42:55;29.10;45.10
7077;DHT22;3579;48.956;9.154;2023-06-10T15:45:21;29.10;45.10
7077;DHT22;3579;48.956;9.154;2023-06-10T15:47:47;29.10;45.10
7077;DHT22;3579;48.956;9.154;2023-06-10T15:50:12;29.10;45.10
7077;DHT22;3579;48.956;9.154;2023-06-10T15:52:38;29.10;45.20
7077;DHT22;3579;48.956;9.154;2023-06-10T15:55:05;29.10;45.20
7077;DHT22;3579;48.956;9.154;2023-06-10T15:57:31;29.10;45.20
7077;DHT22;3579;48.956;9.154;2023-06-10T15:59:57;29.10;45.20
7077;DHT22;3579;48.956;9.154;2023-06-10T16:02:23;29.10;45.20
7077;DHT22;3579;48.956;9.154;2023-06-10T16:04:49;29.10;45.20
7077;DHT22;3579;48.956;9.154;2023-06-10T16:07:15;29.10;45.20
7077;DHT22;3579;48.956;9.154;2023-06-10T16:09:41;29.10;45.20
7077;DHT22;3579;48.956;9.154;2023-06-10T16:12:07;29.10;45.20
7077;DHT22;3579;48.956;9.154;2023-06-10T16:14:33;29.10;45.20
7077;DHT22;3579;48.956;9.154;2023-06-10T16:16:59;29.10;45.20
7077;DHT22;3579;48.956;9.154;2023-06-10T16:19:26;29.10;45.20
7077;DHT22;3579;48.956;9.154;2023-06-10T16:21:52;29.10;45.20
7077;DHT22;3579;48.956;9.154;2023-06-10T16:24:18;29.10;45.20
7077;DHT22;3579;48.956;9.154;2023-06-10T16:26:45;29.10;45.30